createdAt,value
2023-01-03T00:02:57.188Z,1.10
2023-01-03T00:05:43.817Z,1.00
2023-01-03T00:11:58.262Z,0.90
2023-01-03T00:17:54.639Z,1.05
2023-01-03T00:20:46.673Z,1.13
2023-01-03T00:23:18.484Z,1.50
2023-01-03T00:26:02.787Z,1.08
2023-01-03T00:34:53.170Z,1.00
2023-01-03T00:37:49.906Z,1.00
2023-01-03T00:43:34.118Z,1.10
2023-01-03T00:46:26.377Z,1.10
2023-01-03T00:49:01.605Z,1.20
2023-01-03T00:52:11.644Z,1.10
2023-01-03T00:55:18.808Z,1.30
2023-01-03T00:57:51.354Z,1.20
2023-01-03T01:00:32.273Z,1.40
2023-01-03T01:03:16.654Z,1.55
2023-01-03T01:05:56.411Z,1.50
2023-01-03T01:08:28.896Z,1.27
2023-01-03T01:11:18.750Z,1.33
2023-01-03T01:14:01.939Z,1.52
2023-01-03T01:16:39.501Z,1.13
2023-01-03T01:19:15.560Z,1.50
2023-01-03T01:21:57.808Z,1.42
2023-01-03T01:24:36.077Z,1.52
2023-01-03T01:27:06.759Z,1.27
2023-01-03T01:32:30.077Z,1.63
2023-01-03T01:35:12.610Z,1.65
2023-01-03T01:37:52.927Z,1.50
2023-01-03T01:40:27.612Z,1.67
2023-01-03T01:43:18.538Z,1.65
2023-01-03T01:45:49.285Z,1.60
2023-01-03T01:48:22.376Z,1.52
2023-01-03T01:51:09.184Z,1.48
2023-01-03T01:53:57.821Z,1.77
2023-01-03T01:56:43.314Z,1.42
2023-01-03T01:59:13.103Z,1.70
2023-01-03T02:01:57.254Z,1.60
2023-01-03T02:06:55.460Z,2.10
2023-01-03T02:09:36.211Z,2.00
2023-01-03T02:12:28.201Z,2.00
2023-01-03T02:15:07.250Z,1.85
2023-01-03T02:17:42.215Z,1.50
2023-01-03T02:20:20.673Z,1.70
2023-01-03T02:23:09.854Z,1.85
2023-01-03T02:25:57.286Z,1.63
2023-01-03T02:28:58.655Z,1.73
2023-01-03T02:31:31.503Z,1.70
2023-01-03T02:34:05.090Z,1.70
2023-01-03T02:36:40.070Z,1.92
2023-01-03T02:39:13.525Z,1.73
2023-01-03T02:41:47.236Z,1.92
2023-01-03T02:44:19.253Z,1.90
2023-01-03T02:46:51.883Z,2.20
2023-01-03T02:49:27.301Z,2.00
2023-01-03T02:52:01.151Z,2.10
2023-01-03T02:57:05.707Z,2.55
2023-01-03T02:59:37.688Z,2.20
2023-01-03T03:02:09.678Z,2.10
2023-01-03T03:04:40.584Z,2.30
2023-01-03T03:07:10.594Z,2.30
2023-01-03T03:10:00.427Z,2.40
2023-01-03T03:12:50.302Z,2.30
2023-01-03T03:15:20.029Z,2.47
2023-01-03T03:17:50.296Z,2.70
2023-01-03T03:20:37.142Z,2.30
2023-01-03T03:23:30.069Z,2.85
2023-01-03T03:26:05.540Z,2.85
2023-01-03T03:28:43.559Z,2.40
2023-01-03T03:31:14.580Z,2.50
2023-01-03T03:33:51.929Z,2.40
2023-01-03T03:36:28.577Z,2.17
2023-01-03T03:39:06.382Z,2.53
2023-01-03T03:42:00.798Z,2.63
2023-01-03T03:47:22.221Z,2.70
2023-01-03T03:50:08.277Z,2.47
2023-01-03T03:52:45.351Z,2.67
2023-01-03T03:55:23.630Z,2.63
2023-01-03T03:57:59.302Z,2.50
2023-01-03T04:00:33.132Z,2.80
2023-01-03T04:08:37.381Z,2.60
2023-01-03T04:11:10.440Z,2.65
2023-01-03T04:13:48.094Z,2.47
2023-01-03T04:16:30.149Z,2.80
2023-01-03T04:19:04.620Z,2.72
2023-01-03T04:21:38.270Z,2.85
2023-01-03T04:24:09.248Z,3.55
2023-01-03T04:26:40.862Z,3.22
2023-01-03T04:29:13.428Z,3.80
2023-01-03T04:31:42.353Z,3.60
2023-01-03T04:34:17.609Z,3.90
2023-01-03T04:36:47.268Z,3.38
2023-01-03T04:39:17.637Z,3.83
2023-01-03T04:41:46.544Z,3.55
2023-01-03T04:44:16.618Z,3.47
2023-01-03T04:46:52.832Z,3.45
2023-01-03T04:49:23.479Z,3.08
2023-01-03T04:51:52.315Z,3.03
2023-01-03T04:54:22.620Z,3.83
2023-01-03T04:56:51.277Z,3.88
2023-01-03T04:59:21.668Z,4.10
2023-01-03T05:01:52.715Z,4.43
2023-01-03T05:04:21.745Z,3.80
2023-01-03T05:06:50.412Z,4.45
2023-01-03T05:09:19.163Z,4.60
2023-01-03T05:11:50.670Z,4.05
2023-01-03T05:14:19.313Z,4.40
2023-01-03T05:16:48.121Z,4.82
2023-01-03T05:19:16.892Z,4.60
2023-01-03T05:22:05.186Z,4.40
2023-01-03T05:24:56.616Z,4.32
2023-01-03T05:27:31.407Z,4.57
2023-01-03T05:30:02.069Z,4.68
2023-01-03T05:32:33.216Z,4.15
2023-01-03T05:35:02.168Z,4.40
2023-01-03T05:37:30.920Z,4.90
2023-01-03T05:40:11.118Z,4.70
2023-01-03T05:42:41.452Z,4.20
2023-01-03T05:45:10.779Z,4.25
2023-01-03T05:47:41.553Z,4.13
2023-01-03T05:50:10.704Z,4.05
2023-01-03T05:52:39.951Z,4.78
2023-01-03T05:55:10.353Z,4.72
2023-01-03T05:57:40.847Z,4.30
2023-01-03T06:00:12.954Z,4.50
2023-01-03T06:02:42.474Z,4.78
2023-01-03T06:05:11.596Z,4.07
2023-01-03T06:07:40.632Z,4.75
2023-01-03T06:10:13.038Z,4.85
2023-01-03T06:12:43.904Z,4.32
2023-01-03T06:15:17.448Z,5.50
2023-01-03T06:18:05.479Z,4.95
2023-01-03T06:20:39.071Z,5.40
2023-01-03T06:23:08.091Z,5.82
2023-01-03T06:25:37.019Z,5.72
2023-01-03T06:28:13.317Z,5.20
2023-01-03T06:30:48.126Z,4.53
2023-01-03T06:33:21.699Z,3.92
2023-01-03T06:35:50.723Z,3.92
2023-01-03T06:38:19.689Z,3.50
2023-01-03T06:40:51.543Z,3.90
2023-01-03T06:43:22.504Z,4.13
2023-01-03T06:46:10.349Z,4.25
2023-01-03T06:48:56.940Z,5.40
2023-01-03T06:51:46.445Z,5.70
2023-01-03T06:54:24.896Z,6.68
2023-01-03T06:57:00.205Z,8.48
2023-01-03T06:59:45.300Z,7.40
2023-01-03T07:02:16.482Z,7.05
2023-01-03T07:04:49.939Z,8.93
2023-01-03T07:07:18.661Z,6.43
2023-01-03T07:09:49.794Z,5.75
2023-01-03T07:12:38.086Z,5.97
2023-01-03T07:15:07.331Z,5.47
2023-01-03T07:17:42.921Z,5.43
2023-01-03T07:20:13.719Z,6.32
2023-01-03T07:22:50.588Z,11.27
2023-01-03T07:25:24.021Z,8.32
2023-01-03T07:28:12.767Z,7.03
2023-01-03T07:30:47.090Z,7.20
2023-01-03T07:33:25.297Z,7.07
2023-01-03T07:36:14.674Z,7.90
2023-01-03T07:38:52.062Z,9.55
2023-01-03T07:41:32.332Z,12.77
2023-01-03T07:47:07.339Z,12.38
2023-01-03T07:49:38.481Z,13.90
2023-01-03T07:52:16.367Z,11.93
2023-01-03T07:55:02.416Z,10.23
2023-01-03T07:57:43.025Z,11.07
2023-01-03T08:00:15.596Z,11.23
2023-01-03T08:02:48.986Z,11.65
2023-01-03T08:05:25.135Z,14.38
2023-01-03T08:07:56.483Z,13.38
2023-01-03T08:10:44.759Z,12.52
2023-01-03T08:13:19.504Z,13.48
2023-01-03T08:15:51.279Z,13.52
2023-01-03T08:18:27.645Z,13.35
2023-01-03T08:21:04.114Z,14.75
2023-01-03T08:23:41.607Z,14.35
2023-01-03T08:26:35.033Z,13.68
2023-01-03T08:29:12.554Z,13.27
2023-01-03T08:31:47.648Z,13.73
2023-01-03T08:34:29.061Z,12.05
2023-01-03T08:37:03.038Z,17.17
2023-01-03T08:39:46.312Z,22.50
2023-01-03T08:42:21.343Z,13.27
2023-01-03T08:44:57.452Z,14.73
2023-01-03T08:47:28.844Z,12.30
2023-01-03T08:49:59.718Z,11.35
2023-01-03T08:52:35.086Z,12.43
2023-01-03T08:55:04.696Z,13.48
2023-01-03T08:57:44.411Z,13.20
2023-01-03T09:00:16.015Z,13.38
2023-01-03T09:02:45.375Z,15.57
2023-01-03T09:05:16.356Z,17.10
2023-01-03T09:07:46.780Z,14.63
2023-01-03T09:10:15.572Z,14.82
2023-01-03T09:12:44.566Z,14.45
2023-01-03T09:15:20.984Z,14.63
2023-01-03T09:17:51.855Z,14.15
2023-01-03T09:20:21.532Z,13.55
2023-01-03T09:22:52.217Z,16.63
2023-01-03T09:25:21.162Z,16.67
2023-01-03T09:28:07.119Z,15.38
2023-01-03T09:30:45.222Z,13.20
2023-01-03T09:33:14.271Z,13.95
2023-01-03T09:35:46.773Z,13.68
2023-01-03T09:38:30.964Z,13.88
2023-01-03T09:43:32.632Z,14.27
2023-01-03T09:46:03.563Z,14.73
2023-01-03T09:48:35.715Z,14.88
2023-01-03T09:51:31.172Z,13.63
2023-01-03T09:54:25.391Z,15.50
2023-01-03T09:57:11.997Z,15.05
2023-01-03T09:59:58.458Z,13.60
2023-01-03T10:03:03.514Z,13.00
2023-01-03T10:05:41.129Z,11.65
2023-01-03T10:08:32.442Z,11.43
2023-01-03T10:11:12.253Z,10.90
2023-01-03T10:13:48.542Z,10.95
2023-01-03T10:16:22.845Z,11.02
2023-01-03T10:19:07.211Z,10.48
2023-01-03T10:21:46.579Z,10.88
2023-01-03T10:24:24.206Z,11.23
2023-01-03T10:27:07.072Z,11.18
2023-01-03T10:29:36.254Z,10.10
2023-01-03T10:32:25.043Z,13.95
2023-01-03T10:35:04.071Z,11.25
2023-01-03T10:37:35.309Z,9.32
2023-01-03T10:40:18.373Z,8.45
2023-01-03T10:42:55.846Z,7.75
2023-01-03T10:45:28.870Z,7.78
2023-01-03T10:48:02.603Z,6.10
2023-01-03T10:50:41.990Z,7.70
2023-01-03T10:53:11.560Z,7.28
2023-01-03T10:55:46.636Z,6.57
2023-01-03T10:58:21.235Z,6.70
2023-01-03T11:00:50.169Z,6.78
2023-01-03T11:03:20.832Z,6.28
2023-01-03T11:05:50.523Z,6.60
2023-01-03T11:08:24.417Z,6.05
2023-01-03T11:11:01.959Z,6.05
2023-01-03T11:13:39.482Z,5.90
2023-01-03T11:16:15.532Z,5.70
2023-01-03T11:18:45.744Z,5.03
2023-01-03T11:21:23.566Z,5.60
2023-01-03T11:24:01.758Z,5.07
2023-01-03T11:26:41.770Z,5.00
2023-01-03T11:29:27.315Z,4.68
2023-01-03T11:32:03.151Z,4.85
2023-01-03T11:35:21.556Z,5.18
2023-01-03T11:37:46.822Z,4.97
2023-01-03T11:40:34.524Z,5.38
2023-01-03T11:43:17.942Z,5.22
2023-01-03T11:46:13.636Z,5.13
2023-01-03T11:49:21.714Z,5.05
2023-01-03T11:52:04.599Z,5.22
2023-01-03T11:54:53.602Z,4.75
2023-01-03T11:57:43.340Z,5.40
2023-01-03T12:00:25.743Z,6.75
2023-01-03T12:03:20.218Z,4.93
2023-01-03T12:06:17.956Z,4.50
2023-01-03T12:09:14.618Z,4.60
2023-01-03T12:12:04.927Z,3.95
2023-01-03T12:14:53.790Z,3.50
2023-01-03T12:17:57.310Z,3.83
2023-01-03T12:20:37.945Z,3.85
2023-01-03T12:23:24.927Z,3.65
2023-01-03T12:26:01.269Z,3.17
2023-01-03T12:28:36.790Z,2.75
2023-01-03T12:31:33.920Z,2.70
2023-01-03T12:34:10.755Z,2.97
2023-01-03T12:36:52.431Z,2.78
2023-01-03T12:39:35.078Z,2.42
2023-01-03T12:42:16.987Z,2.78
2023-01-03T12:44:47.205Z,2.70
2023-01-03T12:47:33.326Z,3.03
2023-01-03T13:09:13.878Z,3.45
2023-01-03T13:20:11.375Z,4.05
2023-01-03T13:22:53.971Z,3.60
2023-01-03T13:25:36.362Z,4.20
2023-01-03T13:28:22.682Z,3.85
2023-01-03T13:30:51.747Z,3.88
2023-01-03T13:41:40.892Z,4.82
2023-01-03T13:44:30.065Z,4.70
2023-01-03T13:47:01.463Z,5.05
2023-01-03T13:49:47.635Z,4.43
2023-01-03T13:55:50.760Z,4.28
2023-01-03T13:58:40.977Z,4.25
2023-01-03T14:01:22.247Z,3.60
2023-01-03T14:04:09.733Z,4.53
2023-01-03T14:06:59.909Z,4.22
2023-01-03T14:09:44.648Z,4.80
2023-01-03T14:12:33.129Z,3.95
2023-01-03T14:15:40.257Z,4.10
2023-01-03T14:18:29.269Z,4.22
2023-01-03T14:21:00.192Z,3.65
2023-01-03T14:23:59.100Z,3.70
2023-01-03T14:26:26.463Z,3.05
2023-01-03T14:29:31.032Z,2.60
2023-01-03T14:32:53.169Z,2.67
2023-01-03T14:43:16.194Z,2.80
2023-01-03T14:49:49.322Z,2.67
2023-01-03T14:57:32.195Z,2.75
2023-01-03T15:13:44.925Z,3.90
2023-01-03T15:20:26.923Z,3.60
2023-01-03T16:47:25.691Z,5.68
2023-01-03T16:54:13.661Z,3.70
2023-01-03T17:14:30.437Z,6.35
2023-01-03T17:20:15.189Z,4.93
2023-01-03T17:23:03.284Z,5.97
2023-01-03T17:25:39.441Z,5.55
2023-01-03T17:28:29.138Z,4.97
2023-01-03T17:31:30.697Z,5.10
2023-01-03T17:34:22.884Z,4.40
2023-01-03T17:37:01.573Z,5.50
2023-01-03T17:39:59.862Z,5.20
2023-01-03T17:42:49.154Z,4.65
2023-01-03T17:49:59.012Z,5.43
2023-01-03T17:52:44.208Z,7.40
2023-01-03T17:58:59.009Z,6.35
2023-01-03T18:19:20.134Z,10.50
2023-01-03T18:22:12.945Z,7.55
2023-01-03T18:24:43.009Z,6.28
2023-01-03T18:27:14.523Z,5.00
2023-01-03T18:32:42.305Z,5.60
2023-01-03T18:35:12.380Z,12.30
2023-01-03T18:37:44.113Z,7.45
2023-01-03T18:40:19.229Z,9.75
2023-01-03T18:43:10.735Z,13.85
2023-01-03T18:45:40.517Z,16.60
2023-01-03T18:48:09.240Z,11.38
2023-01-03T18:50:39.033Z,12.25
2023-01-03T18:53:09.700Z,11.27
2023-01-03T18:55:45.987Z,11.38
2023-01-03T18:59:02.632Z,11.50
2023-01-03T19:01:34.071Z,8.80
2023-01-03T19:04:07.660Z,8.95
2023-01-03T19:06:42.373Z,8.68
2023-01-03T19:09:15.705Z,9.52
2023-01-03T19:11:48.240Z,11.10
2023-01-03T19:14:22.754Z,10.68
2023-01-03T19:17:20.434Z,10.52
2023-01-03T19:20:10.332Z,8.10
2023-01-03T19:23:17.034Z,8.77
2023-01-03T19:30:19.317Z,8.45
2023-01-03T19:33:02.829Z,8.00
2023-01-03T19:35:31.538Z,8.00
2023-01-03T19:38:20.143Z,9.13
2023-01-03T19:40:50.893Z,8.85
2023-01-03T19:43:22.964Z,8.43
2023-01-03T19:45:55.276Z,9.07
2023-01-03T19:48:29.712Z,8.35
2023-01-03T19:51:00.853Z,7.65
2023-01-03T19:53:30.587Z,7.40
2023-01-03T19:56:13.016Z,8.20
2023-01-03T19:58:49.835Z,7.10
2023-01-03T20:01:50.524Z,7.68
2023-01-03T20:04:39.066Z,6.63
2023-01-03T20:07:20.054Z,6.63
2023-01-03T20:09:55.248Z,8.02
2023-01-03T20:12:38.710Z,7.38
2023-01-03T20:15:18.033Z,7.88
2023-01-03T20:18:00.895Z,9.07
2023-01-03T20:20:45.198Z,8.88
2023-01-03T20:23:41.929Z,7.90
2023-01-03T20:26:36.490Z,8.18
2023-01-03T20:29:20.303Z,6.90
2023-01-03T20:34:29.143Z,6.68
2023-01-03T20:37:02.378Z,7.22
2023-01-03T20:42:48.086Z,7.20
2023-01-03T20:45:37.458Z,6.78
2023-01-03T20:48:11.939Z,7.40
2023-01-03T20:50:58.363Z,7.35
2023-01-03T20:53:54.185Z,6.35
2023-01-03T20:56:37.741Z,7.45
2023-01-03T20:59:09.342Z,7.25
2023-01-03T21:01:52.364Z,7.65
2023-01-03T21:04:24.099Z,9.20
2023-01-03T21:06:55.850Z,8.98
2023-01-03T21:09:24.522Z,9.55
2023-01-03T21:12:01.800Z,9.77
2023-01-03T21:14:39.781Z,9.60
2023-01-03T21:17:18.813Z,8.93
2023-01-03T21:19:58.966Z,9.45
2023-01-03T21:22:31.552Z,9.23
2023-01-03T21:25:07.431Z,9.48
2023-01-03T21:27:37.691Z,9.35
2023-01-03T21:30:13.458Z,9.77
2023-01-03T21:32:46.802Z,9.05
2023-01-03T21:35:16.503Z,8.65
2023-01-03T21:37:47.059Z,10.65
2023-01-03T21:40:20.134Z,10.10
2023-01-03T21:43:04.676Z,9.45
2023-01-03T21:45:35.338Z,9.95
2023-01-03T21:48:05.245Z,10.18
2023-01-03T21:50:40.721Z,9.77
2023-01-03T21:53:13.165Z,10.18
2023-01-03T21:55:48.220Z,9.88
2023-01-03T21:58:21.303Z,8.68
2023-01-03T22:00:50.359Z,8.88
2023-01-03T22:03:36.784Z,7.90
2023-01-03T22:06:09.486Z,7.97
2023-01-03T22:08:41.879Z,7.63
2023-01-03T22:11:10.645Z,8.20
2023-01-03T22:13:39.665Z,7.85
2023-01-03T22:16:09.267Z,6.95
2023-01-03T22:18:38.487Z,6.97
2023-01-03T22:21:09.742Z,5.88
2023-01-03T22:23:45.536Z,5.40
2023-01-03T22:26:15.033Z,5.72
2023-01-03T22:28:45.425Z,6.03
2023-01-03T22:31:17.561Z,5.68
2023-01-03T22:33:46.806Z,6.05
2023-01-03T22:36:18.818Z,5.80
2023-01-03T22:38:49.297Z,5.38
2023-01-03T22:41:18.893Z,5.78
2023-01-03T22:43:48.113Z,5.63
2023-01-03T22:46:18.533Z,5.47
2023-01-03T22:48:47.611Z,5.40
2023-01-03T22:51:19.555Z,5.70
2023-01-03T22:53:49.700Z,5.53
2023-01-03T22:56:18.860Z,6.43
2023-01-03T22:58:48.017Z,7.60
2023-01-03T23:01:17.884Z,6.32
2023-01-03T23:03:47.747Z,6.15
2023-01-03T23:06:17.445Z,6.22
2023-01-03T23:08:47.555Z,5.90
2023-01-03T23:11:36.329Z,6.22
2023-01-03T23:14:06.301Z,5.50
2023-01-03T23:16:35.195Z,6.00
2023-01-03T23:19:04.488Z,4.65
2023-01-03T23:21:33.114Z,4.75
2023-01-03T23:24:01.875Z,4.65
2023-01-03T23:26:31.888Z,5.38
2023-01-03T23:29:01.340Z,3.90
2023-01-03T23:31:30.621Z,4.43
2023-01-03T23:34:00.804Z,4.55
2023-01-03T23:36:29.863Z,4.90
2023-01-03T23:39:01.540Z,5.03
2023-01-03T23:41:30.407Z,5.05
2023-01-03T23:44:00.629Z,4.65
2023-01-03T23:46:31.683Z,5.00
2023-01-03T23:49:00.618Z,5.07
2023-01-03T23:51:32.356Z,5.28
2023-01-03T23:54:01.363Z,4.95
2023-01-03T23:56:30.262Z,5.40
2023-01-03T23:59:00.388Z,4.32
